sensor_id;sensor_type;location;lat;lon;timestamp;pressure;altitude;pressure_sealevel;temperature;humidity
30338;BME280;17143;51.888;5.408;2023-02-18T00:07:45;102052.78;;;10.64;100.00
30338;BME280;17143;51.888;5.408;2023-02-18T00:22:47;102045.53;;;10.60;100.00
30338;BME280;17143;51.888;5.408;2023-02-18T00:37:51;102026.38;;;10.59;100.00
30338;BME280;17143;51.888;5.408;2023-02-18T00:52:53;102017.53;;;10.57;100.00
30338;BME280;17143;51.888;5.408;2023-02-18T01:07:55;101981.59;;;10.65;100.00
30338;BME280;17143;51.888;5.408;2023-02-18T01:22:57;101981.16;;;10.70;100.00
30338;BME280;17143;51.888;5.408;2023-02-18T01:37:59;101987.94;;;10.80;100.00
30338;BME280;17143;51.888;5.408;2023-02-18T01:53:01;101974.53;;;10.87;100.00
30338;BME280;17143;51.888;5.408;2023-02-18T02:08:06;101945.00;;;10.99;100.00
30338;BME280;17143;51.888;5.408;2023-02-18T02:23:37;101926.28;;;11.05;100.00
30338;BME280;17143;51.888;5.408;2023-02-18T02:38:53;101886.78;;;11.12;100.00
30338;BME280;17143;51.888;5.408;2023-02-18T02:54:07;101854.69;;;11.13;100.00
30338;BME280;17143;51.888;5.408;2023-02-18T03:09:16;101809.38;;;11.11;100.00
30338;BME280;17143;51.888;5.408;2023-02-18T03:24:25;101796.41;;;11.13;100.00
30338;BME280;17143;51.888;5.408;2023-02-18T03:39:31;101769.84;;;11.18;100.00
30338;BME280;17143;51.888;5.408;2023-02-18T03:54:33;101740.38;;;11.19;100.00
30338;BME280;17143;51.888;5.408;2023-02-18T04:09:36;101719.72;;;11.22;100.00
30338;BME280;17143;51.888;5.408;2023-02-18T04:24:38;101702.44;;;11.24;100.00
30338;BME280;17143;51.888;5.408;2023-02-18T04:39:40;101701.53;;;11.24;100.00
30338;BME280;17143;51.888;5.408;2023-02-18T04:54:42;101697.03;;;11.21;100.00
30338;BME280;17143;51.888;5.408;2023-02-18T05:09:44;101648.88;;;11.16;100.00
30338;BME280;17143;51.888;5.408;2023-02-18T05:24:46;101655.50;;;11.11;100.00
30338;BME280;17143;51.888;5.408;2023-02-18T05:39:48;101655.91;;;11.04;100.00
30338;BME280;17143;51.888;5.408;2023-02-18T05:54:50;101640.59;;;10.95;100.00
30338;BME280;17143;51.888;5.408;2023-02-18T06:09:53;101625.66;;;10.93;100.00
30338;BME280;17143;51.888;5.408;2023-02-18T06:24:55;101627.06;;;10.88;100.00
30338;BME280;17143;51.888;5.408;2023-02-18T06:39:57;101640.47;;;10.81;100.00
30338;BME280;17143;51.888;5.408;2023-02-18T06:54:59;101638.69;;;10.80;100.00
30338;BME280;17143;51.888;5.408;2023-02-18T07:10:01;101636.66;;;10.76;100.00
30338;BME280;17143;51.888;5.408;2023-02-18T07:25:03;101641.47;;;10.70;100.00
30338;BME280;17143;51.888;5.408;2023-02-18T07:40:06;101639.47;;;10.66;100.00
30338;BME280;17143;51.888;5.408;2023-02-18T07:55:09;101636.66;;;10.76;100.00
30338;BME280;17143;51.888;5.408;2023-02-18T08:10:11;101629.03;;;10.79;100.00
30338;BME280;17143;51.888;5.408;2023-02-18T08:25:13;101649.69;;;10.89;100.00
30338;BME280;17143;51.888;5.408;2023-02-18T08:40:15;101653.13;;;10.88;100.00
30338;BME280;17143;51.888;5.408;2023-02-18T08:55:18;101649.91;;;10.79;100.00
30338;BME280;17143;51.888;5.408;2023-02-18T09:10:20;101638.28;;;10.74;100.00
30338;BME280;17143;51.888;5.408;2023-02-18T09:25:22;101656.72;;;10.64;100.00
30338;BME280;17143;51.888;5.408;2023-02-18T09:40:28;101661.81;;;10.75;100.00
30338;BME280;17143;51.888;5.408;2023-02-18T09:55:33;101664.75;;;10.80;100.00
30338;BME280;17143;51.888;5.408;2023-02-18T10:10:38;101679.34;;;10.91;100.00
30338;BME280;17143;51.888;5.408;2023-02-18T10:25:44;101696.81;;;10.92;100.00
30338;BME280;17143;51.888;5.408;2023-02-18T10:40:55;101696.94;;;11.07;100.00
30338;BME280;17143;51.888;5.408;2023-02-18T10:56:00;101724.50;;;11.16;100.00
30338;BME280;17143;51.888;5.408;2023-02-18T11:11:16;101723.50;;;11.27;100.00
30338;BME280;17143;51.888;5.408;2023-02-18T11:26:25;101717.06;;;11.48;100.00
30338;BME280;17143;51.888;5.408;2023-02-18T11:41:33;101697.31;;;11.93;100.00
30338;BME280;17143;51.888;5.408;2023-02-18T11:56:37;101712.13;;;11.79;100.00
30338;BME280;17143;51.888;5.408;2023-02-18T12:11:41;101706.97;;;11.68;100.00
30338;BME280;17143;51.888;5.408;2023-02-18T12:26:49;101696.13;;;11.88;100.00
30338;BME280;17143;51.888;5.408;2023-02-18T12:42:05;101698.38;;;12.24;100.00
30338;BME280;17143;51.888;5.408;2023-02-18T12:57:24;101712.50;;;12.13;100.00
30338;BME280;17143;51.888;5.408;2023-02-18T13:12:33;101707.56;;;12.17;100.00
30338;BME280;17143;51.888;5.408;2023-02-18T13:27:42;101713.31;;;12.12;100.00
30338;BME280;17143;51.888;5.408;2023-02-18T13:42:49;101704.31;;;12.07;100.00
30338;BME280;17143;51.888;5.408;2023-02-18T13:57:53;101712.06;;;12.20;100.00
30338;BME280;17143;51.888;5.408;2023-02-18T14:28:38;101729.97;;;12.56;100.00
30338;BME280;17143;51.888;5.408;2023-02-18T14:43:53;101741.19;;;12.83;100.00
30338;BME280;17143;51.888;5.408;2023-02-18T14:59:02;101750.00;;;12.85;100.00
30338;BME280;17143;51.888;5.408;2023-02-18T15:14:11;101736.09;;;12.71;100.00
30338;BME280;17143;51.888;5.408;2023-02-18T15:29:19;101736.09;;;12.71;100.00
30338;BME280;17143;51.888;5.408;2023-02-18T15:44:23;101741.41;;;12.58;100.00
30338;BME280;17143;51.888;5.408;2023-02-18T15:59:27;101737.50;;;12.37;100.00
30338;BME280;17143;51.888;5.408;2023-02-18T16:14:32;101736.19;;;12.16;100.00
30338;BME280;17143;51.888;5.408;2023-02-18T16:29:35;101734.22;;;12.12;100.00
30338;BME280;17143;51.888;5.408;2023-02-18T16:44:38;101739.75;;;12.03;100.00
30338;BME280;17143;51.888;5.408;2023-02-18T16:59:40;101736.69;;;11.96;100.00
30338;BME280;17143;51.888;5.408;2023-02-18T17:14:42;101743.25;;;11.76;100.00
30338;BME280;17143;51.888;5.408;2023-02-18T17:29:44;101732.44;;;11.70;100.00
30338;BME280;17143;51.888;5.408;2023-02-18T17:44:46;101736.81;;;11.58;100.00
30338;BME280;17143;51.888;5.408;2023-02-18T17:59:48;101734.72;;;11.52;100.00
30338;BME280;17143;51.888;5.408;2023-02-18T18:14:50;101746.56;;;11.47;100.00
30338;BME280;17143;51.888;5.408;2023-02-18T18:29:52;101735.34;;;11.48;100.00
30338;BME280;17143;51.888;5.408;2023-02-18T18:44:54;101744.56;;;11.43;100.00
30338;BME280;17143;51.888;5.408;2023-02-18T18:59:56;101735.72;;;11.41;100.00
30338;BME280;17143;51.888;5.408;2023-02-18T19:14:58;101716.47;;;11.39;100.00
30338;BME280;17143;51.888;5.408;2023-02-18T19:30:00;101714.84;;;11.41;100.00
30338;BME280;17143;51.888;5.408;2023-02-18T19:45:03;101697.91;;;11.48;100.00
30338;BME280;17143;51.888;5.408;2023-02-18T20:00:07;101703.19;;;11.49;100.00
30338;BME280;17143;51.888;5.408;2023-02-18T20:15:14;101672.72;;;11.48;100.00
30338;BME280;17143;51.888;5.408;2023-02-18T20:30:16;101649.25;;;11.35;100.00
30338;BME280;17143;51.888;5.408;2023-02-18T20:45:18;101648.06;;;11.30;100.00
30338;BME280;17143;51.888;5.408;2023-02-18T21:00:20;101645.47;;;11.30;100.00
30338;BME280;17143;51.888;5.408;2023-02-18T21:15:22;101631.75;;;11.20;100.00
30338;BME280;17143;51.888;5.408;2023-02-18T21:30:24;101622.59;;;11.13;100.00
30338;BME280;17143;51.888;5.408;2023-02-18T21:45:26;101592.31;;;11.15;100.00
30338;BME280;17143;51.888;5.408;2023-02-18T22:00:28;101594.13;;;11.16;100.00
30338;BME280;17143;51.888;5.408;2023-02-18T22:15:30;101618.59;;;11.05;100.00
30338;BME280;17143;51.888;5.408;2023-02-18T22:30:32;101610.78;;;11.05;100.00
30338;BME280;17143;51.888;5.408;2023-02-18T22:45:36;101614.00;;;11.01;100.00
30338;BME280;17143;51.888;5.408;2023-02-18T23:00:38;101599.06;;;10.98;100.00
30338;BME280;17143;51.888;5.408;2023-02-18T23:15:40;101598.56;;;10.91;100.00
30338;BME280;17143;51.888;5.408;2023-02-18T23:30:42;101618.41;;;10.89;100.00
30338;BME280;17143;51.888;5.408;2023-02-18T23:45:44;101593.97;;;10.87;100.00
